sensor_id;sensor_type;location;lat;lon;timestamp;temperature;humidity
23073;DHT22;67971;51.046;3.732;2023-05-17T00:01:43;12.60;99.90
23073;DHT22;67971;51.046;3.732;2023-05-17T00:04:09;12.60;99.90
23073;DHT22;67971;51.046;3.732;2023-05-17T00:06:35;12.70;99.90
23073;DHT22;67971;51.046;3.732;2023-05-17T00:09:01;12.60;99.90
23073;DHT22;67971;51.046;3.732;2023-05-17T00:11:27;12.70;99.90
23073;DHT22;67971;51.046;3.732;2023-05-17T00:13:53;12.70;99.90
23073;DHT22;67971;51.046;3.732;2023-05-17T00:16:18;12.70;99.90
23073;DHT22;67971;51.046;3.732;2023-05-17T00:18:44;12.70;99.90
23073;DHT22;67971;51.046;3.732;2023-05-17T00:21:10;12.60;99.90
23073;DHT22;67971;51.046;3.732;2023-05-17T00:23:36;12.60;99.90
23073;DHT22;67971;51.046;3.732;2023-05-17T00:26:01;12.60;99.90
23073;DHT22;67971;51.046;3.732;2023-05-17T00:28:27;12.60;99.90
23073;DHT22;67971;51.046;3.732;2023-05-17T00:30:53;12.50;99.90
23073;DHT22;67971;51.046;3.732;2023-05-17T00:33:18;12.50;99.90
23073;DHT22;67971;51.046;3.732;2023-05-17T00:35:44;12.50;99.90
23073;DHT22;67971;51.046;3.732;2023-05-17T00:38:10;12.40;99.90
23073;DHT22;67971;51.046;3.732;2023-05-17T00:40:35;12.40;99.90
23073;DHT22;67971;51.046;3.732;2023-05-17T00:43:01;12.40;99.90
23073;DHT22;67971;51.046;3.732;2023-05-17T00:45:27;12.30;99.90
23073;DHT22;67971;51.046;3.732;2023-05-17T00:47:52;12.40;99.90
23073;DHT22;67971;51.046;3.732;2023-05-17T00:50:18;12.40;99.90
23073;DHT22;67971;51.046;3.732;2023-05-17T00:52:45;12.40;99.90
23073;DHT22;67971;51.046;3.732;2023-05-17T00:55:10;12.40;99.90
23073;DHT22;67971;51.046;3.732;2023-05-17T00:57:37;12.30;99.90
23073;DHT22;67971;51.046;3.732;2023-05-17T01:00:04;12.30;99.90
23073;DHT22;67971;51.046;3.732;2023-05-17T01:02:30;12.10;99.90
23073;DHT22;67971;51.046;3.732;2023-05-17T01:04:56;12.10;99.90
23073;DHT22;67971;51.046;3.732;2023-05-17T01:07:22;12.10;99.90
23073;DHT22;67971;51.046;3.732;2023-05-17T01:09:48;12.10;99.90
23073;DHT22;67971;51.046;3.732;2023-05-17T01:15:24;12.10;99.90
23073;DHT22;67971;51.046;3.732;2023-05-17T01:20:42;12.10;99.90
23073;DHT22;67971;51.046;3.732;2023-05-17T01:26:13;12.00;99.90
23073;DHT22;67971;51.046;3.732;2023-05-17T01:28:40;12.00;99.90
23073;DHT22;67971;51.046;3.732;2023-05-17T01:31:10;11.90;99.90
23073;DHT22;67971;51.046;3.732;2023-05-17T01:33:37;11.70;99.90
23073;DHT22;67971;51.046;3.732;2023-05-17T01:36:03;11.70;99.90
23073;DHT22;67971;51.046;3.732;2023-05-17T01:38:29;11.70;99.90
23073;DHT22;67971;51.046;3.732;2023-05-17T01:41:00;11.70;99.90
23073;DHT22;67971;51.046;3.732;2023-05-17T01:48:55;11.70;99.90
23073;DHT22;67971;51.046;3.732;2023-05-17T01:51:23;11.70;99.90
23073;DHT22;67971;51.046;3.732;2023-05-17T01:53:56;11.70;99.90
23073;DHT22;67971;51.046;3.732;2023-05-17T01:56:33;11.70;99.90
23073;DHT22;67971;51.046;3.732;2023-05-17T01:58:59;11.60;99.90
23073;DHT22;67971;51.046;3.732;2023-05-17T02:01:28;11.60;99.90
23073;DHT22;67971;51.046;3.732;2023-05-17T02:03:55;11.60;99.90
23073;DHT22;67971;51.046;3.732;2023-05-17T02:06:20;11.70;99.90
23073;DHT22;67971;51.046;3.732;2023-05-17T02:08:46;11.50;99.90
23073;DHT22;67971;51.046;3.732;2023-05-17T02:11:12;11.50;99.90
23073;DHT22;67971;51.046;3.732;2023-05-17T02:13:37;11.50;99.90
23073;DHT22;67971;51.046;3.732;2023-05-17T02:16:03;11.40;99.90
23073;DHT22;67971;51.046;3.732;2023-05-17T02:18:29;11.50;99.90
23073;DHT22;67971;51.046;3.732;2023-05-17T02:20:56;11.40;99.90
23073;DHT22;67971;51.046;3.732;2023-05-17T02:23:22;11.30;99.90
23073;DHT22;67971;51.046;3.732;2023-05-17T02:25:49;11.20;99.90
23073;DHT22;67971;51.046;3.732;2023-05-17T02:28:15;11.10;99.90
23073;DHT22;67971;51.046;3.732;2023-05-17T02:30:41;11.10;99.90
23073;DHT22;67971;51.046;3.732;2023-05-17T02:33:07;11.20;99.90
23073;DHT22;67971;51.046;3.732;2023-05-17T02:35:33;11.30;99.90
23073;DHT22;67971;51.046;3.732;2023-05-17T02:37:59;11.20;99.90
23073;DHT22;67971;51.046;3.732;2023-05-17T02:40:25;11.30;99.90
23073;DHT22;67971;51.046;3.732;2023-05-17T02:42:50;11.40;99.90
23073;DHT22;67971;51.046;3.732;2023-05-17T02:45:16;11.40;99.90
23073;DHT22;67971;51.046;3.732;2023-05-17T02:47:42;11.40;99.90
23073;DHT22;67971;51.046;3.732;2023-05-17T02:50:08;11.30;99.90
23073;DHT22;67971;51.046;3.732;2023-05-17T02:52:34;11.40;99.90
23073;DHT22;67971;51.046;3.732;2023-05-17T02:54:59;11.40;99.90
23073;DHT22;67971;51.046;3.732;2023-05-17T02:57:25;11.40;99.90
23073;DHT22;67971;51.046;3.732;2023-05-17T02:59:51;11.40;99.90
23073;DHT22;67971;51.046;3.732;2023-05-17T03:02:17;11.40;99.90
23073;DHT22;67971;51.046;3.732;2023-05-17T03:04:42;11.40;99.90
23073;DHT22;67971;51.046;3.732;2023-05-17T03:07:08;11.20;99.90
23073;DHT22;67971;51.046;3.732;2023-05-17T03:09:34;11.20;99.90
23073;DHT22;67971;51.046;3.732;2023-05-17T03:12:00;11.20;99.90
23073;DHT22;67971;51.046;3.732;2023-05-17T03:14:25;11.10;99.90
23073;DHT22;67971;51.046;3.732;2023-05-17T03:16:51;11.10;99.90
23073;DHT22;67971;51.046;3.732;2023-05-17T03:19:17;11.20;99.90
23073;DHT22;67971;51.046;3.732;2023-05-17T03:21:42;11.20;99.90
23073;DHT22;67971;51.046;3.732;2023-05-17T03:24:08;11.20;99.90
23073;DHT22;67971;51.046;3.732;2023-05-17T03:26:34;11.20;99.90
23073;DHT22;67971;51.046;3.732;2023-05-17T03:29:00;11.20;99.90
23073;DHT22;67971;51.046;3.732;2023-05-17T03:31:25;11.20;99.90
23073;DHT22;67971;51.046;3.732;2023-05-17T03:33:51;11.10;99.90
23073;DHT22;67971;51.046;3.732;2023-05-17T03:36:17;10.90;99.90
23073;DHT22;67971;51.046;3.732;2023-05-17T03:38:42;11.00;99.90
23073;DHT22;67971;51.046;3.732;2023-05-17T03:41:09;11.10;99.90
23073;DHT22;67971;51.046;3.732;2023-05-17T03:43:34;11.10;99.90
23073;DHT22;67971;51.046;3.732;2023-05-17T03:46:00;11.10;99.90
23073;DHT22;67971;51.046;3.732;2023-05-17T03:48:26;11.00;99.90
23073;DHT22;67971;51.046;3.732;2023-05-17T03:50:51;11.10;99.90
23073;DHT22;67971;51.046;3.732;2023-05-17T03:53:17;11.10;99.90
23073;DHT22;67971;51.046;3.732;2023-05-17T03:55:43;11.20;99.90
23073;DHT22;67971;51.046;3.732;2023-05-17T03:58:08;11.30;99.90
23073;DHT22;67971;51.046;3.732;2023-05-17T04:00:34;11.40;99.90
23073;DHT22;67971;51.046;3.732;2023-05-17T04:03:00;11.40;99.90
23073;DHT22;67971;51.046;3.732;2023-05-17T04:05:26;11.40;99.90
23073;DHT22;67971;51.046;3.732;2023-05-17T04:07:53;11.40;99.90
23073;DHT22;67971;51.046;3.732;2023-05-17T04:10:19;11.50;99.90
23073;DHT22;67971;51.046;3.732;2023-05-17T04:12:44;11.60;99.90
23073;DHT22;67971;51.046;3.732;2023-05-17T04:15:10;11.60;99.90
23073;DHT22;67971;51.046;3.732;2023-05-17T04:17:36;11.70;99.90
23073;DHT22;67971;51.046;3.732;2023-05-17T04:20:03;11.70;99.90
23073;DHT22;67971;51.046;3.732;2023-05-17T04:22:31;11.70;99.90
23073;DHT22;67971;51.046;3.732;2023-05-17T04:24:57;11.90;99.90
23073;DHT22;67971;51.046;3.732;2023-05-17T04:27:22;11.90;99.90
23073;DHT22;67971;51.046;3.732;2023-05-17T04:29:48;12.00;99.90
23073;DHT22;67971;51.046;3.732;2023-05-17T04:32:14;12.10;99.90
23073;DHT22;67971;51.046;3.732;2023-05-17T04:34:40;12.10;99.90
23073;DHT22;67971;51.046;3.732;2023-05-17T04:37:05;12.10;99.90
23073;DHT22;67971;51.046;3.732;2023-05-17T04:39:31;12.20;99.90
23073;DHT22;67971;51.046;3.732;2023-05-17T04:41:57;12.30;99.90
23073;DHT22;67971;51.046;3.732;2023-05-17T04:44:23;12.30;99.90
23073;DHT22;67971;51.046;3.732;2023-05-17T04:46:48;12.40;99.90
23073;DHT22;67971;51.046;3.732;2023-05-17T04:49:14;12.40;99.90
23073;DHT22;67971;51.046;3.732;2023-05-17T04:51:40;12.50;99.90
23073;DHT22;67971;51.046;3.732;2023-05-17T04:54:06;12.60;99.90
23073;DHT22;67971;51.046;3.732;2023-05-17T04:56:34;12.70;99.90
23073;DHT22;67971;51.046;3.732;2023-05-17T04:59:01;12.70;99.90
23073;DHT22;67971;51.046;3.732;2023-05-17T05:01:27;12.90;99.90
23073;DHT22;67971;51.046;3.732;2023-05-17T05:03:55;13.00;99.90
23073;DHT22;67971;51.046;3.732;2023-05-17T05:06:22;12.90;99.90
23073;DHT22;67971;51.046;3.732;2023-05-17T05:08:47;13.00;99.90
23073;DHT22;67971;51.046;3.732;2023-05-17T05:11:13;13.00;99.90
23073;DHT22;67971;51.046;3.732;2023-05-17T05:13:39;13.20;99.90
23073;DHT22;67971;51.046;3.732;2023-05-17T05:16:06;13.40;99.90
23073;DHT22;67971;51.046;3.732;2023-05-17T05:18:32;13.40;99.90
23073;DHT22;67971;51.046;3.732;2023-05-17T05:20:58;13.50;99.90
23073;DHT22;67971;51.046;3.732;2023-05-17T05:23:24;13.60;99.90
23073;DHT22;67971;51.046;3.732;2023-05-17T05:25:50;13.70;99.90
23073;DHT22;67971;51.046;3.732;2023-05-17T05:28:16;13.80;99.90
23073;DHT22;67971;51.046;3.732;2023-05-17T05:30:42;13.80;99.90
23073;DHT22;67971;51.046;3.732;2023-05-17T05:33:07;13.70;99.90
23073;DHT22;67971;51.046;3.732;2023-05-17T05:35:33;13.70;99.90
23073;DHT22;67971;51.046;3.732;2023-05-17T05:37:59;13.70;99.90
23073;DHT22;67971;51.046;3.732;2023-05-17T05:40:24;13.70;99.90
23073;DHT22;67971;51.046;3.732;2023-05-17T05:42:50;13.80;99.90
23073;DHT22;67971;51.046;3.732;2023-05-17T05:45:17;13.80;99.90
23073;DHT22;67971;51.046;3.732;2023-05-17T05:47:42;13.80;99.90
23073;DHT22;67971;51.046;3.732;2023-05-17T05:50:09;14.10;99.90
23073;DHT22;67971;51.046;3.732;2023-05-17T05:52:36;14.10;99.90
23073;DHT22;67971;51.046;3.732;2023-05-17T05:55:02;14.40;99.90
23073;DHT22;67971;51.046;3.732;2023-05-17T05:57:28;14.90;99.90
23073;DHT22;67971;51.046;3.732;2023-05-17T05:59:54;15.30;99.90
23073;DHT22;67971;51.046;3.732;2023-05-17T06:02:20;15.30;99.90
23073;DHT22;67971;51.046;3.732;2023-05-17T06:04:49;15.50;99.90
23073;DHT22;67971;51.046;3.732;2023-05-17T06:07:14;15.50;99.90
23073;DHT22;67971;51.046;3.732;2023-05-17T06:09:41;15.50;99.90
23073;DHT22;67971;51.046;3.732;2023-05-17T06:12:06;15.40;99.90
23073;DHT22;67971;51.046;3.732;2023-05-17T06:14:32;15.40;99.90
23073;DHT22;67971;51.046;3.732;2023-05-17T06:16:58;15.50;99.90
23073;DHT22;67971;51.046;3.732;2023-05-17T06:19:24;15.60;99.90
23073;DHT22;67971;51.046;3.732;2023-05-17T06:21:50;15.70;99.90
23073;DHT22;67971;51.046;3.732;2023-05-17T06:24:15;15.70;99.90
23073;DHT22;67971;51.046;3.732;2023-05-17T06:26:41;15.90;99.90
23073;DHT22;67971;51.046;3.732;2023-05-17T06:29:08;16.00;99.90
23073;DHT22;67971;51.046;3.732;2023-05-17T06:31:34;16.20;99.90
23073;DHT22;67971;51.046;3.732;2023-05-17T06:34:00;16.40;99.90
23073;DHT22;67971;51.046;3.732;2023-05-17T06:36:26;16.70;99.90
23073;DHT22;67971;51.046;3.732;2023-05-17T06:38:52;17.20;99.90
23073;DHT22;67971;51.046;3.732;2023-05-17T06:41:18;17.40;99.90
23073;DHT22;67971;51.046;3.732;2023-05-17T06:43:44;17.80;99.90
23073;DHT22;67971;51.046;3.732;2023-05-17T06:46:10;18.30;99.90
23073;DHT22;67971;51.046;3.732;2023-05-17T06:48:36;19.00;99.90
23073;DHT22;67971;51.046;3.732;2023-05-17T06:51:02;19.30;99.90
23073;DHT22;67971;51.046;3.732;2023-05-17T06:53:28;19.80;99.90
23073;DHT22;67971;51.046;3.732;2023-05-17T06:55:54;20.10;99.90
23073;DHT22;67971;51.046;3.732;2023-05-17T06:58:19;20.30;99.90
23073;DHT22;67971;51.046;3.732;2023-05-17T07:00:45;20.20;99.90
23073;DHT22;67971;51.046;3.732;2023-05-17T07:03:11;20.00;99.90
23073;DHT22;67971;51.046;3.732;2023-05-17T07:05:37;20.00;99.90
23073;DHT22;67971;51.046;3.732;2023-05-17T07:08:03;19.90;99.90
23073;DHT22;67971;51.046;3.732;2023-05-17T07:10:28;20.10;99.90
23073;DHT22;67971;51.046;3.732;2023-05-17T07:12:54;20.50;99.90
23073;DHT22;67971;51.046;3.732;2023-05-17T07:15:20;20.60;99.90
23073;DHT22;67971;51.046;3.732;2023-05-17T07:17:45;20.60;99.90
23073;DHT22;67971;51.046;3.732;2023-05-17T07:20:11;20.60;99.90
23073;DHT22;67971;51.046;3.732;2023-05-17T07:22:37;20.70;99.90
23073;DHT22;67971;51.046;3.732;2023-05-17T07:25:03;20.90;99.90
23073;DHT22;67971;51.046;3.732;2023-05-17T07:27:29;20.70;99.90
23073;DHT22;67971;51.046;3.732;2023-05-17T07:29:55;21.20;99.90
23073;DHT22;67971;51.046;3.732;2023-05-17T07:32:21;21.80;99.90
23073;DHT22;67971;51.046;3.732;2023-05-17T07:34:47;22.40;99.90
23073;DHT22;67971;51.046;3.732;2023-05-17T07:37:12;23.20;99.90
23073;DHT22;67971;51.046;3.732;2023-05-17T07:39:38;24.00;99.90
23073;DHT22;67971;51.046;3.732;2023-05-17T07:42:04;24.10;99.90
23073;DHT22;67971;51.046;3.732;2023-05-17T07:44:30;24.20;99.90
23073;DHT22;67971;51.046;3.732;2023-05-17T07:46:55;24.90;99.90
23073;DHT22;67971;51.046;3.732;2023-05-17T07:49:22;25.50;99.90
23073;DHT22;67971;51.046;3.732;2023-05-17T07:51:49;25.70;99.90
23073;DHT22;67971;51.046;3.732;2023-05-17T07:54:22;25.90;99.90
23073;DHT22;67971;51.046;3.732;2023-05-17T07:56:57;26.50;99.90
23073;DHT22;67971;51.046;3.732;2023-05-17T07:59:24;25.90;99.90
23073;DHT22;67971;51.046;3.732;2023-05-17T08:01:50;24.90;99.90
23073;DHT22;67971;51.046;3.732;2023-05-17T08:04:16;23.90;99.90
23073;DHT22;67971;51.046;3.732;2023-05-17T08:06:43;23.20;99.90
23073;DHT22;67971;51.046;3.732;2023-05-17T08:09:11;23.50;99.90
23073;DHT22;67971;51.046;3.732;2023-05-17T08:11:37;23.00;99.90
23073;DHT22;67971;51.046;3.732;2023-05-17T08:14:16;22.80;99.90
23073;DHT22;67971;51.046;3.732;2023-05-17T08:16:44;22.60;99.90
23073;DHT22;67971;51.046;3.732;2023-05-17T08:19:11;23.90;99.90
23073;DHT22;67971;51.046;3.732;2023-05-17T08:21:38;24.90;99.90
23073;DHT22;67971;51.046;3.732;2023-05-17T08:24:04;25.50;99.90
23073;DHT22;67971;51.046;3.732;2023-05-17T08:26:29;26.70;99.90
23073;DHT22;67971;51.046;3.732;2023-05-17T08:28:55;27.20;99.90
23073;DHT22;67971;51.046;3.732;2023-05-17T08:31:21;27.30;99.90
23073;DHT22;67971;51.046;3.732;2023-05-17T08:33:46;27.80;99.90
23073;DHT22;67971;51.046;3.732;2023-05-17T08:36:12;27.80;99.60
23073;DHT22;67971;51.046;3.732;2023-05-17T08:38:38;27.90;98.50
23073;DHT22;67971;51.046;3.732;2023-05-17T08:41:03;28.10;98.40
23073;DHT22;67971;51.046;3.732;2023-05-17T08:43:29;28.10;97.50
23073;DHT22;67971;51.046;3.732;2023-05-17T08:45:57;27.30;97.60
23073;DHT22;67971;51.046;3.732;2023-05-17T08:48:25;27.20;98.20
23073;DHT22;67971;51.046;3.732;2023-05-17T08:50:53;27.20;96.70
23073;DHT22;67971;51.046;3.732;2023-05-17T08:53:18;27.10;97.10
23073;DHT22;67971;51.046;3.732;2023-05-17T08:55:45;28.00;96.50
23073;DHT22;67971;51.046;3.732;2023-05-17T08:58:18;28.00;95.90
23073;DHT22;67971;51.046;3.732;2023-05-17T09:00:46;27.80;95.50
23073;DHT22;67971;51.046;3.732;2023-05-17T09:03:17;27.50;94.80
23073;DHT22;67971;51.046;3.732;2023-05-17T09:05:44;27.40;95.00
23073;DHT22;67971;51.046;3.732;2023-05-17T09:08:10;28.10;94.80
23073;DHT22;67971;51.046;3.732;2023-05-17T09:10:41;29.30;94.20
23073;DHT22;67971;51.046;3.732;2023-05-17T09:13:10;29.80;93.00
23073;DHT22;67971;51.046;3.732;2023-05-17T09:15:43;30.40;92.90
23073;DHT22;67971;51.046;3.732;2023-05-17T09:18:10;30.90;91.40
23073;DHT22;67971;51.046;3.732;2023-05-17T09:20:39;31.10;90.10
23073;DHT22;67971;51.046;3.732;2023-05-17T09:23:06;31.40;89.70
23073;DHT22;67971;51.046;3.732;2023-05-17T09:25:34;31.70;90.00
23073;DHT22;67971;51.046;3.732;2023-05-17T09:28:05;31.30;89.90
23073;DHT22;67971;51.046;3.732;2023-05-17T09:30:37;30.80;90.30
23073;DHT22;67971;51.046;3.732;2023-05-17T09:33:05;31.00;88.90
23073;DHT22;67971;51.046;3.732;2023-05-17T09:35:32;30.40;88.30
23073;DHT22;67971;51.046;3.732;2023-05-17T09:38:06;30.50;90.30
23073;DHT22;67971;51.046;3.732;2023-05-17T09:40:33;31.30;88.90
23073;DHT22;67971;51.046;3.732;2023-05-17T09:43:01;31.90;85.90
23073;DHT22;67971;51.046;3.732;2023-05-17T09:45:27;32.70;86.10
23073;DHT22;67971;51.046;3.732;2023-05-17T09:47:56;33.10;79.80
23073;DHT22;67971;51.046;3.732;2023-05-17T09:50:21;33.70;78.90
23073;DHT22;67971;51.046;3.732;2023-05-17T09:52:47;33.30;79.60
23073;DHT22;67971;51.046;3.732;2023-05-17T09:55:13;33.30;77.90
23073;DHT22;67971;51.046;3.732;2023-05-17T09:57:40;32.20;75.80
23073;DHT22;67971;51.046;3.732;2023-05-17T10:00:07;31.70;79.10
23073;DHT22;67971;51.046;3.732;2023-05-17T10:02:37;31.40;76.40
23073;DHT22;67971;51.046;3.732;2023-05-17T10:05:04;31.20;76.50
23073;DHT22;67971;51.046;3.732;2023-05-17T10:07:33;31.70;77.80
23073;DHT22;67971;51.046;3.732;2023-05-17T10:09:59;32.30;76.70
23073;DHT22;67971;51.046;3.732;2023-05-17T10:12:26;32.50;76.20
23073;DHT22;67971;51.046;3.732;2023-05-17T10:14:55;33.00;77.90
23073;DHT22;67971;51.046;3.732;2023-05-17T10:17:25;33.40;75.10
23073;DHT22;67971;51.046;3.732;2023-05-17T10:19:52;33.50;75.00
23073;DHT22;67971;51.046;3.732;2023-05-17T10:22:20;33.50;74.20
23073;DHT22;67971;51.046;3.732;2023-05-17T10:24:47;33.50;75.30
23073;DHT22;67971;51.046;3.732;2023-05-17T10:27:14;34.00;74.90
23073;DHT22;67971;51.046;3.732;2023-05-17T10:29:40;32.70;73.70
23073;DHT22;67971;51.046;3.732;2023-05-17T10:32:07;32.60;76.60
23073;DHT22;67971;51.046;3.732;2023-05-17T10:34:34;33.20;78.00
23073;DHT22;67971;51.046;3.732;2023-05-17T10:37:01;33.20;73.60
23073;DHT22;67971;51.046;3.732;2023-05-17T10:39:27;33.00;74.50
23073;DHT22;67971;51.046;3.732;2023-05-17T10:41:55;32.90;74.80
23073;DHT22;67971;51.046;3.732;2023-05-17T10:44:21;33.20;72.20
23073;DHT22;67971;51.046;3.732;2023-05-17T10:46:55;33.00;71.90
23073;DHT22;67971;51.046;3.732;2023-05-17T10:49:26;33.50;73.80
23073;DHT22;67971;51.046;3.732;2023-05-17T10:51:54;33.00;71.60
23073;DHT22;67971;51.046;3.732;2023-05-17T10:54:36;32.90;72.00
23073;DHT22;67971;51.046;3.732;2023-05-17T10:57:04;33.70;71.90
23073;DHT22;67971;51.046;3.732;2023-05-17T10:59:32;34.00;69.80
23073;DHT22;67971;51.046;3.732;2023-05-17T11:02:08;34.00;71.40
23073;DHT22;67971;51.046;3.732;2023-05-17T11:04:40;33.90;71.20
23073;DHT22;67971;51.046;3.732;2023-05-17T11:09:45;34.20;68.30
23073;DHT22;67971;51.046;3.732;2023-05-17T11:12:15;33.70;69.80
23073;DHT22;67971;51.046;3.732;2023-05-17T11:17:14;35.10;69.70
23073;DHT22;67971;51.046;3.732;2023-05-17T11:20:28;34.60;67.70
23073;DHT22;67971;51.046;3.732;2023-05-17T11:22:37;34.30;67.20
23073;DHT22;67971;51.046;3.732;2023-05-17T11:25:07;34.00;68.30
23073;DHT22;67971;51.046;3.732;2023-05-17T11:27:38;34.60;66.60
23073;DHT22;67971;51.046;3.732;2023-05-17T11:30:21;34.60;66.60
23073;DHT22;67971;51.046;3.732;2023-05-17T11:32:52;34.00;65.20
23073;DHT22;67971;51.046;3.732;2023-05-17T11:35:22;32.70;68.60
23073;DHT22;67971;51.046;3.732;2023-05-17T11:37:51;32.80;69.60
23073;DHT22;67971;51.046;3.732;2023-05-17T11:40:25;33.10;70.00
23073;DHT22;67971;51.046;3.732;2023-05-17T11:43:15;33.00;66.60
23073;DHT22;67971;51.046;3.732;2023-05-17T11:45:46;33.40;67.80
23073;DHT22;67971;51.046;3.732;2023-05-17T11:48:13;32.30;67.70
23073;DHT22;67971;51.046;3.732;2023-05-17T11:50:40;31.70;70.10
23073;DHT22;67971;51.046;3.732;2023-05-17T11:53:07;32.30;70.90
23073;DHT22;67971;51.046;3.732;2023-05-17T11:55:44;33.00;68.20
23073;DHT22;67971;51.046;3.732;2023-05-17T11:58:16;32.80;67.20
23073;DHT22;67971;51.046;3.732;2023-05-17T12:00:43;32.60;67.90
23073;DHT22;67971;51.046;3.732;2023-05-17T12:05:45;33.90;67.30
23073;DHT22;67971;51.046;3.732;2023-05-17T12:08:13;34.70;65.10
23073;DHT22;67971;51.046;3.732;2023-05-17T12:10:52;34.00;65.20
23073;DHT22;67971;51.046;3.732;2023-05-17T12:13:21;34.10;65.60
23073;DHT22;67971;51.046;3.732;2023-05-17T12:15:53;33.70;66.00
23073;DHT22;67971;51.046;3.732;2023-05-17T12:18:20;34.30;67.30
23073;DHT22;67971;51.046;3.732;2023-05-17T12:20:56;34.10;65.80
23073;DHT22;67971;51.046;3.732;2023-05-17T12:23:42;33.90;66.20
23073;DHT22;67971;51.046;3.732;2023-05-17T12:26:10;33.90;64.50
23073;DHT22;67971;51.046;3.732;2023-05-17T12:28:43;33.60;66.70
23073;DHT22;67971;51.046;3.732;2023-05-17T12:31:11;33.90;65.10
23073;DHT22;67971;51.046;3.732;2023-05-17T12:33:38;33.80;64.10
23073;DHT22;67971;51.046;3.732;2023-05-17T12:36:07;34.00;66.00
23073;DHT22;67971;51.046;3.732;2023-05-17T12:38:33;33.90;66.00
23073;DHT22;67971;51.046;3.732;2023-05-17T12:41:00;33.50;67.70
23073;DHT22;67971;51.046;3.732;2023-05-17T12:43:27;33.90;66.40
23073;DHT22;67971;51.046;3.732;2023-05-17T12:46:00;33.80;67.30
23073;DHT22;67971;51.046;3.732;2023-05-17T12:48:27;33.60;65.70
23073;DHT22;67971;51.046;3.732;2023-05-17T12:50:52;33.90;67.50
23073;DHT22;67971;51.046;3.732;2023-05-17T12:53:21;33.70;66.70
23073;DHT22;67971;51.046;3.732;2023-05-17T12:55:47;33.50;66.70
23073;DHT22;67971;51.046;3.732;2023-05-17T12:58:13;34.10;67.30
23073;DHT22;67971;51.046;3.732;2023-05-17T13:00:39;33.60;65.10
23073;DHT22;67971;51.046;3.732;2023-05-17T13:03:09;32.70;65.00
23073;DHT22;67971;51.046;3.732;2023-05-17T13:05:35;32.80;66.20
23073;DHT22;67971;51.046;3.732;2023-05-17T13:08:20;33.40;66.90
23073;DHT22;67971;51.046;3.732;2023-05-17T13:10:46;33.40;65.60
23073;DHT22;67971;51.046;3.732;2023-05-17T13:13:20;33.60;67.20
23073;DHT22;67971;51.046;3.732;2023-05-17T13:15:46;33.60;65.00
23073;DHT22;67971;51.046;3.732;2023-05-17T13:18:13;33.40;65.70
23073;DHT22;67971;51.046;3.732;2023-05-17T13:20:41;32.90;66.20
23073;DHT22;67971;51.046;3.732;2023-05-17T13:23:08;32.90;64.50
23073;DHT22;67971;51.046;3.732;2023-05-17T13:25:33;33.30;65.70
23073;DHT22;67971;51.046;3.732;2023-05-17T13:28:01;33.60;63.00
23073;DHT22;67971;51.046;3.732;2023-05-17T13:30:27;33.70;63.30
23073;DHT22;67971;51.046;3.732;2023-05-17T13:32:53;33.60;63.70
23073;DHT22;67971;51.046;3.732;2023-05-17T13:35:20;33.10;64.20
23073;DHT22;67971;51.046;3.732;2023-05-17T13:37:46;32.50;63.30
23073;DHT22;67971;51.046;3.732;2023-05-17T13:40:12;32.10;66.60
23073;DHT22;67971;51.046;3.732;2023-05-17T13:42:37;32.60;66.70
23073;DHT22;67971;51.046;3.732;2023-05-17T13:45:03;32.90;65.00
23073;DHT22;67971;51.046;3.732;2023-05-17T13:47:30;33.30;64.20
23073;DHT22;67971;51.046;3.732;2023-05-17T13:49:58;33.50;64.20
23073;DHT22;67971;51.046;3.732;2023-05-17T13:52:25;33.40;64.50
23073;DHT22;67971;51.046;3.732;2023-05-17T13:54:50;33.50;64.50
23073;DHT22;67971;51.046;3.732;2023-05-17T13:57:16;33.20;65.00
23073;DHT22;67971;51.046;3.732;2023-05-17T13:59:42;33.60;65.40
23073;DHT22;67971;51.046;3.732;2023-05-17T14:02:08;33.50;66.20
23073;DHT22;67971;51.046;3.732;2023-05-17T14:04:35;33.80;66.10
23073;DHT22;67971;51.046;3.732;2023-05-17T14:07:01;33.50;63.60
23073;DHT22;67971;51.046;3.732;2023-05-17T14:09:28;33.80;64.80
23073;DHT22;67971;51.046;3.732;2023-05-17T14:11:57;33.90;65.40
23073;DHT22;67971;51.046;3.732;2023-05-17T14:14:23;33.90;65.80
23073;DHT22;67971;51.046;3.732;2023-05-17T14:16:52;34.70;64.00
23073;DHT22;67971;51.046;3.732;2023-05-17T14:19:18;34.60;63.30
23073;DHT22;67971;51.046;3.732;2023-05-17T14:21:44;34.40;64.00
23073;DHT22;67971;51.046;3.732;2023-05-17T14:24:10;34.70;63.80
23073;DHT22;67971;51.046;3.732;2023-05-17T14:26:35;34.50;62.50
23073;DHT22;67971;51.046;3.732;2023-05-17T14:29:01;34.40;63.10
23073;DHT22;67971;51.046;3.732;2023-05-17T14:31:27;34.20;63.60
23073;DHT22;67971;51.046;3.732;2023-05-17T14:33:54;33.60;64.10
23073;DHT22;67971;51.046;3.732;2023-05-17T14:36:20;33.80;64.50
23073;DHT22;67971;51.046;3.732;2023-05-17T14:38:45;33.90;63.90
23073;DHT22;67971;51.046;3.732;2023-05-17T14:41:11;33.90;63.50
23073;DHT22;67971;51.046;3.732;2023-05-17T14:43:36;33.50;62.30
23073;DHT22;67971;51.046;3.732;2023-05-17T14:46:03;33.60;62.40
23073;DHT22;67971;51.046;3.732;2023-05-17T14:48:28;33.50;63.70
23073;DHT22;67971;51.046;3.732;2023-05-17T14:50:55;33.50;64.00
23073;DHT22;67971;51.046;3.732;2023-05-17T14:53:21;33.60;64.40
23073;DHT22;67971;51.046;3.732;2023-05-17T14:55:47;33.50;63.70
23073;DHT22;67971;51.046;3.732;2023-05-17T14:58:14;33.30;63.30
23073;DHT22;67971;51.046;3.732;2023-05-17T15:00:40;33.00;64.40
23073;DHT22;67971;51.046;3.732;2023-05-17T15:03:09;33.40;63.80
23073;DHT22;67971;51.046;3.732;2023-05-17T15:05:35;33.40;63.30
23073;DHT22;67971;51.046;3.732;2023-05-17T15:08:02;33.60;63.10
23073;DHT22;67971;51.046;3.732;2023-05-17T15:10:28;33.90;61.40
23073;DHT22;67971;51.046;3.732;2023-05-17T15:12:54;33.60;62.10
23073;DHT22;67971;51.046;3.732;2023-05-17T15:15:20;33.60;62.40
23073;DHT22;67971;51.046;3.732;2023-05-17T15:17:46;33.70;63.20
23073;DHT22;67971;51.046;3.732;2023-05-17T15:20:12;33.20;63.30
23073;DHT22;67971;51.046;3.732;2023-05-17T15:22:38;32.40;63.40
23073;DHT22;67971;51.046;3.732;2023-05-17T15:25:04;32.50;64.80
23073;DHT22;67971;51.046;3.732;2023-05-17T15:27:30;32.50;64.10
23073;DHT22;67971;51.046;3.732;2023-05-17T15:29:56;32.20;63.70
23073;DHT22;67971;51.046;3.732;2023-05-17T15:32:21;31.90;66.10
23073;DHT22;67971;51.046;3.732;2023-05-17T15:34:47;30.90;65.20
23073;DHT22;67971;51.046;3.732;2023-05-17T15:37:13;28.50;68.00
23073;DHT22;67971;51.046;3.732;2023-05-17T15:39:39;27.10;72.10
23073;DHT22;67971;51.046;3.732;2023-05-17T15:42:04;26.40;73.50
23073;DHT22;67971;51.046;3.732;2023-05-17T15:44:30;25.70;74.20
23073;DHT22;67971;51.046;3.732;2023-05-17T15:46:56;25.00;76.40
23073;DHT22;67971;51.046;3.732;2023-05-17T15:49:21;24.60;76.10
23073;DHT22;67971;51.046;3.732;2023-05-17T15:51:47;24.40;77.20